createdAt,value
2022-09-23T14:42:43.000Z,42.474365
2022-09-23T14:43:03.000Z,41.772461
2022-09-23T14:43:24.000Z,40.570068
2022-09-23T14:43:44.000Z,40.850830
2022-09-23T14:44:04.000Z,40.246582
2022-09-23T14:44:24.000Z,41.351318
2022-09-23T14:44:45.000Z,40.527344
2022-09-23T14:45:05.000Z,38.922119
2022-09-23T14:45:25.000Z,39.025879
2022-09-23T14:45:45.000Z,40.026855
2022-09-23T14:46:06.000Z,39.727783
2022-09-23T14:46:26.000Z,40.527344
2022-09-23T14:46:46.000Z,42.437744
2022-09-23T14:47:06.000Z,44.238281
2022-09-23T14:47:27.000Z,40.930176
2022-09-23T14:47:47.000Z,40.527344
2022-09-23T14:48:07.000Z,40.246582
2022-09-23T14:48:28.000Z,42.053223
2022-09-23T14:48:48.000Z,42.053223
2022-09-23T14:49:08.000Z,41.253662
2022-09-23T14:49:28.000Z,41.754150
2022-09-23T14:49:49.000Z,42.578125
2022-09-23T14:50:09.000Z,41.674805
2022-09-23T14:50:29.000Z,41.973877
2022-09-23T14:50:49.000Z,43.078613
2022-09-23T14:51:09.000Z,44.708252
2022-09-23T14:51:30.000Z,43.200684
2022-09-23T14:51:50.000Z,44.403076
2022-09-23T14:52:10.000Z,42.919922
2022-09-23T14:52:31.000Z,42.413330
2022-09-23T14:52:51.000Z,42.413330
2022-09-23T14:53:11.000Z,42.718506
2022-09-23T14:53:31.000Z,42.211914
2022-09-23T14:53:52.000Z,42.315674
2022-09-23T14:54:12.000Z,43.035889
2022-09-23T14:54:32.000Z,43.518066
2022-09-23T14:54:52.000Z,43.518066
2022-09-23T14:55:13.000Z,42.614746
2022-09-23T14:55:33.000Z,43.518066
2022-09-23T14:55:53.000Z,43.621826
2022-09-23T14:56:13.000Z,42.736816
2022-09-23T14:56:34.000Z,42.938232
2022-09-23T14:56:54.000Z,43.341064
2022-09-23T14:57:14.000Z,44.042969
2022-09-23T14:57:35.000Z,43.743896
2022-09-23T14:57:55.000Z,42.840576
2022-09-23T14:58:15.000Z,43.035889
2022-09-23T14:58:35.000Z,42.840576
2022-09-23T14:58:56.000Z,42.736816
2022-09-23T14:59:01.000Z,42.437744
2022-09-23T15:00:20.000Z,42.333984
2022-09-23T15:00:40.000Z,42.736816
2022-09-23T15:01:01.000Z,42.132568
2022-09-23T15:01:21.000Z,42.236328
2022-09-23T15:01:41.000Z,42.315674
2022-09-23T15:02:01.000Z,41.711426
2022-09-23T15:02:22.000Z,41.711426
2022-09-23T15:02:42.000Z,41.815186
2022-09-23T15:03:02.000Z,41.815186
2022-09-23T15:03:22.000Z,42.211914
2022-09-23T15:03:43.000Z,42.010498
2022-09-23T15:04:03.000Z,43.420410
2022-09-23T15:04:23.000Z,47.943115
2022-09-23T15:04:43.000Z,43.823242
2022-09-23T15:05:04.000Z,43.017578
2022-09-23T15:05:24.000Z,43.121338
2022-09-23T15:05:44.000Z,42.614746
2022-09-23T15:06:05.000Z,42.236328
2022-09-23T15:06:25.000Z,42.236328
2022-09-23T15:06:45.000Z,42.333984
2022-09-23T15:07:05.000Z,42.333984
2022-09-23T15:07:26.000Z,42.333984
2022-09-23T15:07:46.000Z,42.535400
2022-09-23T15:08:06.000Z,43.035889
2022-09-23T15:08:27.000Z,45.751953
2022-09-23T15:08:47.000Z,48.370361
2022-09-23T15:09:07.000Z,49.072266
2022-09-23T15:09:27.000Z,49.975586
2022-09-23T15:09:48.000Z,50.885010
2022-09-23T15:10:08.000Z,51.586914
2022-09-23T15:10:13.000Z,52.618408
2022-09-23T15:11:28.000Z,53.521729
2022-09-23T15:11:49.000Z,53.118896
2022-09-23T15:12:09.000Z,54.327393
2022-09-23T15:12:29.000Z,54.528809
2022-09-23T15:12:49.000Z,55.133057
2022-09-23T15:13:10.000Z,56.341553
2022-09-23T15:13:30.000Z,55.633545
2022-09-23T15:13:50.000Z,55.108643
2022-09-23T15:14:11.000Z,54.907227
